North Decatur, Georgia
Current Conditions -  °F | °C
As of 6:53 AM on Saturday 22 Nov 2014 (Local Time) from KPDK Reporting Station
Clear Clear  
Wind Chill: 34°   Ceiling: Unl
Heat Index: 39°   Visibility: 10mi
Dew Point: 25°   Wind: 7mph
Humidity: 57%   Direction: 80°E
Pressure: 30.46"   Gusts: NA
Location:  33.8123°N, 84.2845°W
Report Text: KPDK 221153Z 08006KT 10SM CLR 04/M04 A3046 RMK AO2 SLP324 T00391039 10061 20017 53005
Loading
Personal Weather Stations






























Interactive Weather Map New forecast layout! Learn more

10-Day Weather Forecast

Advertisements
Track Severe Weather on mobile